Time;durP1;ratioP1;P1;durP2;ratioP2;P2;SDS_P1;SDS_P2;PMS_P1;PMS_P2;Temp;Humidity;BMP_temperature;BMP_pressure;BME280_temperature;BME280_humidity;BME280_pressure;Samples;Min_cycle;Max_cycle;Signal;HPM_P1;HPM_P2
2021/10/17 00:00:28;;;;;;;12.60;6.63;;;10.10;99.90;;;;;;6179082;23;20025;-48
2021/10/17 00:02:55;;;;;;;14.20;6.30;;;10.00;99.90;;;;;;6178672;23;20035;-47
2021/10/17 00:05:24;;;;;;;12.73;5.97;;;10.00;99.90;;;;;;6179081;23;20100;-50
2021/10/17 00:07:50;;;;;;;14.82;6.90;;;10.00;99.90;;;;;;6152614;23;20029;-46
2021/10/17 00:10:26;;;;;;;13.10;6.55;;;9.90;99.90;;;;;;6178922;23;20025;-50
2021/10/17 00:12:54;;;;;;;13.90;6.50;;;9.90;99.90;;;;;;6178786;23;20100;-47
2021/10/17 00:15:22;;;;;;;15.05;5.72;;;9.80;99.90;;;;;;6178978;23;20029;-47
2021/10/17 00:17:48;;;;;;;12.65;6.18;;;9.80;99.90;;;;;;6179423;23;20462;-49
2021/10/17 00:20:17;;;;;;;13.57;6.88;;;9.80;99.90;;;;;;6179768;23;20087;-47
2021/10/17 00:22:43;;;;;;;12.93;7.10;;;9.80;99.90;;;;;;6178307;23;20036;-47
2021/10/17 00:25:10;;;;;;;15.30;7.20;;;9.80;99.90;;;;;;6151733;23;20036;-47
2021/10/17 00:27:37;;;;;;;12.35;6.72;;;9.70;99.90;;;;;;6178343;23;20584;-47
2021/10/17 00:30:07;;;;;;;12.10;7.05;;;9.70;99.90;;;;;;6151991;23;20079;-48
2021/10/17 00:32:36;;;;;;;11.05;6.82;;;9.70;99.90;;;;;;6177510;23;20060;-46
2021/10/17 00:35:05;;;;;;;13.05;6.43;;;9.70;99.90;;;;;;6178434;23;20029;-48
2021/10/17 00:37:32;;;;;;;15.10;6.90;;;9.70;99.90;;;;;;6127277;23;20099;-47
2021/10/17 00:39:59;;;;;;;18.73;7.55;;;9.70;99.90;;;;;;6152186;23;20033;-50
2021/10/17 00:42:25;;;;;;;17.63;7.20;;;9.60;99.90;;;;;;6176842;23;20462;-46
2021/10/17 00:44:59;;;;;;;15.70;7.90;;;9.60;99.90;;;;;;6151504;23;20083;-46
2021/10/17 00:47:26;;;;;;;14.88;7.28;;;9.60;99.90;;;;;;6180075;23;20514;-48
2021/10/17 00:49:52;;;;;;;14.73;7.22;;;9.60;99.90;;;;;;6179717;23;20359;-46
2021/10/17 00:52:19;;;;;;;13.07;7.10;;;9.50;99.90;;;;;;6178082;23;20029;-47
2021/10/17 00:54:49;;;;;;;11.85;6.93;;;9.50;99.90;;;;;;6153211;23;20036;-48
2021/10/17 00:57:16;;;;;;;14.25;7.47;;;9.50;99.90;;;;;;6178341;23;20029;-46
2021/10/17 00:59:44;;;;;;;13.75;6.53;;;9.50;99.90;;;;;;6179355;23;20035;-48
2021/10/17 01:02:11;;;;;;;15.63;6.85;;;9.40;99.90;;;;;;6179312;23;20029;-48
2021/10/17 01:04:38;;;;;;;14.73;7.30;;;9.50;99.90;;;;;;6179973;23;20068;-50
2021/10/17 01:07:11;;;;;;;12.98;6.97;;;9.50;99.90;;;;;;6179508;23;20029;-46
2021/10/17 01:09:38;;;;;;;13.02;7.18;;;9.50;99.90;;;;;;6179102;23;20017;-46
2021/10/17 01:12:07;;;;;;;19.35;7.22;;;9.60;99.90;;;;;;6152927;23;20029;-46
2021/10/17 01:14:34;;;;;;;11.90;6.80;;;9.60;99.90;;;;;;6152642;23;20093;-48
2021/10/17 01:17:01;;;;;;;12.98;7.00;;;9.70;99.90;;;;;;6153610;23;20104;-46
2021/10/17 01:19:27;;;;;;;13.88;7.18;;;9.70;99.90;;;;;;6153176;23;20025;-47
2021/10/17 01:22:03;;;;;;;12.55;6.78;;;9.70;99.90;;;;;;6152750;23;20462;-47
2021/10/17 01:24:29;;;;;;;15.70;7.13;;;9.70;99.90;;;;;;6126345;23;20327;-47
2021/10/17 01:26:56;;;;;;;13.95;7.28;;;9.70;99.90;;;;;;6151285;23;20152;-48
2021/10/17 01:29:22;;;;;;;13.98;6.93;;;9.70;99.90;;;;;;6151194;23;20033;-47
2021/10/17 01:31:53;;;;;;;11.52;6.65;;;9.80;99.90;;;;;;6151816;23;20025;-47
2021/10/17 01:34:26;;;;;;;13.40;6.80;;;9.80;99.90;;;;;;6150936;23;20032;-47
2021/10/17 01:36:53;;;;;;;12.77;7.07;;;9.90;99.90;;;;;;6151924;23;20116;-48
2021/10/17 01:39:22;;;;;;;16.08;7.40;;;9.90;99.90;;;;;;6150887;23;20031;-48
2021/10/17 01:41:50;;;;;;;12.25;6.28;;;9.90;99.90;;;;;;6152166;23;20025;-46
2021/10/17 01:44:30;;;;;;;13.18;7.63;;;9.90;99.90;;;;;;6152458;23;20098;-47
2021/10/17 01:46:56;;;;;;;12.48;6.90;;;9.90;99.90;;;;;;6150451;23;20029;-46
2021/10/17 01:49:26;;;;;;;12.60;6.32;;;9.90;99.90;;;;;;6152181;23;20160;-49
2021/10/17 01:51:53;;;;;;;15.93;7.03;;;9.90;99.90;;;;;;6151390;23;20040;-46
2021/10/17 01:54:20;;;;;;;11.75;7.30;;;9.90;99.90;;;;;;6151095;23;20027;-47
2021/10/17 01:56:46;;;;;;;13.93;6.95;;;9.90;99.90;;;;;;6152187;23;20738;-48
2021/10/17 01:59:15;;;;;;;13.85;7.20;;;9.90;99.90;;;;;;6151240;23;20029;-47
2021/10/17 02:01:49;;;;;;;11.85;6.75;;;9.90;99.90;;;;;;6151255;23;20032;-46
2021/10/17 02:04:15;;;;;;;13.48;7.25;;;9.80;99.90;;;;;;6150613;23;20100;-46
2021/10/17 02:06:41;;;;;;;13.73;7.15;;;9.80;99.90;;;;;;6151637;23;20060;-46
2021/10/17 02:09:09;;;;;;;17.70;6.50;;;9.80;99.90;;;;;;6151828;23;20429;-46
2021/10/17 02:11:35;;;;;;;13.77;7.15;;;9.80;99.90;;;;;;6177776;23;20103;-47
2021/10/17 02:14:04;;;;;;;13.05;7.03;;;9.80;99.90;;;;;;6151382;23;20029;-46
2021/10/17 02:16:31;;;;;;;16.40;7.18;;;9.80;99.90;;;;;;6177920;23;20094;-47
2021/10/17 02:18:57;;;;;;;14.48;6.97;;;9.80;99.90;;;;;;6178419;23;20087;-47
2021/10/17 02:21:24;;;;;;;15.15;6.65;;;9.80;99.90;;;;;;6151305;23;20044;-47
2021/10/17 02:23:50;;;;;;;13.30;7.28;;;9.80;99.90;;;;;;6150373;23;20033;-49
2021/10/17 02:26:16;;;;;;;15.88;7.40;;;9.70;99.90;;;;;;6150670;23;20076;-46
2021/10/17 02:29:02;;;;;;;15.35;9.05;;;9.70;99.90;;;;;;6177822;23;20025;-47
2021/10/17 02:31:36;;;;;;;18.60;8.93;;;9.50;99.90;;;;;;6150712;23;20091;-49
2021/10/17 02:34:03;;;;;;;16.95;9.65;;;9.40;99.90;;;;;;6150518;23;20037;-48
2021/10/17 02:36:31;;;;;;;18.90;9.52;;;9.30;99.90;;;;;;6151953;23;20032;-48
2021/10/17 02:38:59;;;;;;;19.45;11.13;;;9.20;99.90;;;;;;6177083;23;20028;-47
2021/10/17 02:41:25;;;;;;;19.27;11.27;;;9.10;99.90;;;;;;6150690;23;20060;-47
2021/10/17 02:43:52;;;;;;;20.90;11.15;;;9.00;99.90;;;;;;6125928;23;20454;-46
2021/10/17 02:46:18;;;;;;;20.95;11.45;;;9.00;99.90;;;;;;6150743;23;20118;-47
2021/10/17 02:48:46;;;;;;;19.83;11.25;;;9.00;99.90;;;;;;6151232;23;20029;-49
2021/10/17 02:51:12;;;;;;;19.67;11.77;;;9.00;99.90;;;;;;6149890;23;20032;-46
2021/10/17 02:53:39;;;;;;;24.85;11.98;;;9.00;99.90;;;;;;6150987;23;20036;-48
2021/10/17 02:56:05;;;;;;;21.55;11.93;;;9.00;99.90;;;;;;6150396;23;20025;-47
2021/10/17 02:58:32;;;;;;;19.48;11.45;;;9.00;99.90;;;;;;6177125;23;20024;-47
2021/10/17 03:01:01;;;;;;;15.15;11.15;;;9.00;99.90;;;;;;6150991;23;20048;-49
2021/10/17 03:03:28;;;;;;;13.40;9.57;;;9.10;99.90;;;;;;6151420;23;20139;-46
2021/10/17 03:05:54;;;;;;;15.70;9.48;;;9.10;99.90;;;;;;6150573;23;20025;-45
2021/10/17 03:08:20;;;;;;;17.35;10.15;;;9.10;99.90;;;;;;6177596;23;20029;-47
2021/10/17 03:10:46;;;;;;;18.85;10.18;;;9.20;99.90;;;;;;6177617;23;20029;-50
2021/10/17 03:13:13;;;;;;;19.85;10.82;;;9.30;99.90;;;;;;6151585;23;20410;-47
2021/10/17 03:15:39;;;;;;;22.95;10.50;;;9.20;99.90;;;;;;6177756;23;20036;-50
2021/10/17 03:18:11;;;;;;;17.35;10.27;;;9.20;99.90;;;;;;6151076;23;20036;-48
2021/10/17 03:20:37;;;;;;;18.98;10.98;;;9.20;99.90;;;;;;6125350;23;20025;-46
2021/10/17 03:23:03;;;;;;;15.80;10.55;;;9.20;99.90;;;;;;6178029;23;20029;-48
2021/10/17 03:25:29;;;;;;;14.23;10.18;;;9.20;99.90;;;;;;6177814;23;20036;-49
2021/10/17 03:27:55;;;;;;;20.40;10.60;;;9.20;99.90;;;;;;6152196;23;20025;-46
2021/10/17 03:30:25;;;;;;;15.27;10.85;;;9.20;99.90;;;;;;6151427;23;20028;-47
2021/10/17 03:32:51;;;;;;;16.55;10.50;;;9.20;99.90;;;;;;6150134;23;20489;-50
2021/10/17 03:35:17;;;;;;;16.58;10.15;;;9.20;99.90;;;;;;6179536;23;20029;-48
2021/10/17 03:37:43;;;;;;;16.33;11.30;;;9.20;99.90;;;;;;6152431;23;20029;-46
2021/10/17 03:40:11;;;;;;;16.80;10.23;;;9.20;99.90;;;;;;6153729;23;20080;-47
2021/10/17 03:42:37;;;;;;;19.83;10.60;;;9.20;99.90;;;;;;6127307;23;20025;-47
2021/10/17 03:45:04;;;;;;;20.50;12.15;;;9.20;99.90;;;;;;6152335;23;20029;-50
2021/10/17 03:47:32;;;;;;;19.42;11.63;;;9.10;99.90;;;;;;6152874;23;20029;-49
2021/10/17 03:49:59;;;;;;;17.42;10.48;;;9.10;99.90;;;;;;6179071;23;20036;-48
2021/10/17 03:52:31;;;;;;;18.17;10.40;;;9.10;99.90;;;;;;6153948;23;20029;-47
2021/10/17 03:54:58;;;;;;;14.88;10.20;;;9.20;99.90;;;;;;6152554;23;20107;-52
2021/10/17 03:57:24;;;;;;;18.45;10.98;;;9.10;99.90;;;;;;6152387;23;20036;-48
2021/10/17 03:59:50;;;;;;;19.88;11.32;;;9.10;99.90;;;;;;6152533;23;20032;-45
2021/10/17 04:02:16;;;;;;;21.88;11.35;;;9.20;99.90;;;;;;6152261;23;20064;-49
2021/10/17 04:04:42;;;;;;;20.98;10.77;;;9.10;99.90;;;;;;6128223;23;20024;-48
2021/10/17 04:07:08;;;;;;;18.77;11.02;;;9.10;99.90;;;;;;6179059;23;20035;-46
2021/10/17 04:09:37;;;;;;;17.10;10.60;;;9.20;99.90;;;;;;6128924;23;20462;-48
2021/10/17 04:12:06;;;;;;;20.73;10.18;;;9.20;99.90;;;;;;6152952;23;20341;-45
2021/10/17 04:14:40;;;;;;;14.68;10.07;;;9.20;99.90;;;;;;6152815;23;20108;-46
2021/10/17 04:17:06;;;;;;;18.98;10.35;;;9.20;99.90;;;;;;6152072;23;20603;-46
2021/10/17 04:19:33;;;;;;;21.83;11.23;;;9.30;99.90;;;;;;6126986;23;20060;-46
2021/10/17 04:21:59;;;;;;;16.70;10.25;;;9.30;99.90;;;;;;6152774;23;20035;-46
2021/10/17 04:24:27;;;;;;;20.70;10.57;;;9.30;99.90;;;;;;6179131;23;20504;-46
2021/10/17 04:26:53;;;;;;;19.52;11.15;;;9.30;99.90;;;;;;6151467;23;20351;-46
2021/10/17 04:29:20;;;;;;;15.85;11.38;;;9.30;99.90;;;;;;6152247;23;20024;-46
2021/10/17 04:31:46;;;;;;;14.90;10.20;;;9.30;99.90;;;;;;6152043;23;20025;-48
2021/10/17 04:34:12;;;;;;;18.70;10.88;;;9.30;99.90;;;;;;6151241;23;20028;-47
2021/10/17 04:36:38;;;;;;;15.35;10.73;;;9.30;99.90;;;;;;6151594;23;20025;-47
2021/10/17 04:39:06;;;;;;;16.60;10.85;;;9.30;99.90;;;;;;6178646;23;20025;-47
2021/10/17 04:41:33;;;;;;;17.55;11.80;;;9.30;99.90;;;;;;6152018;23;20032;-47
2021/10/17 04:44:01;;;;;;;17.25;11.23;;;9.30;99.90;;;;;;6152301;23;20025;-47
2021/10/17 04:46:27;;;;;;;15.77;10.80;;;9.20;99.90;;;;;;6178367;23;20032;-46
2021/10/17 04:48:53;;;;;;;17.73;11.35;;;9.30;99.90;;;;;;6178242;23;20025;-46
2021/10/17 04:51:19;;;;;;;16.45;10.93;;;9.30;99.90;;;;;;6150995;23;20470;-47
2021/10/17 04:53:45;;;;;;;21.92;10.57;;;9.30;99.90;;;;;;6179141;23;20338;-48
2021/10/17 04:56:11;;;;;;;19.17;11.52;;;9.20;99.90;;;;;;6151451;23;20063;-46
2021/10/17 04:58:38;;;;;;;16.77;10.80;;;9.20;99.90;;;;;;6151980;23;20084;-49
2021/10/17 05:01:08;;;;;;;16.15;10.77;;;9.20;99.90;;;;;;6152596;23;20028;-47
2021/10/17 05:03:44;;;;;;;15.43;10.20;;;9.20;99.90;;;;;;6178075;23;20089;-51
2021/10/17 05:06:13;;;;;;;14.77;10.20;;;9.30;99.90;;;;;;6151573;23;20462;-49
2021/10/17 05:08:40;;;;;;;18.98;11.02;;;9.20;99.90;;;;;;6152707;23;20021;-49
2021/10/17 05:11:07;;;;;;;16.33;10.73;;;9.20;99.90;;;;;;6152259;23;20021;-48
2021/10/17 05:13:33;;;;;;;18.58;10.50;;;9.20;99.90;;;;;;6152158;23;20110;-48
2021/10/17 05:16:00;;;;;;;20.17;10.63;;;9.30;99.90;;;;;;6150948;23;20138;-47
2021/10/17 05:18:27;;;;;;;13.75;10.55;;;9.30;99.90;;;;;;6152362;23;20043;-48
2021/10/17 05:21:00;;;;;;;17.35;9.93;;;9.20;99.90;;;;;;6153376;23;20096;-47
2021/10/17 05:23:27;;;;;;;15.63;10.40;;;9.20;99.90;;;;;;6151951;23;20340;-47
2021/10/17 05:25:53;;;;;;;20.08;10.32;;;9.20;99.90;;;;;;6151483;23;20492;-50
2021/10/17 05:28:19;;;;;;;18.33;10.43;;;9.20;99.90;;;;;;6152519;23;20044;-48
2021/10/17 05:30:45;;;;;;;15.25;9.90;;;9.20;99.90;;;;;;6152024;23;20025;-49
2021/10/17 05:33:13;;;;;;;17.30;10.38;;;9.20;99.90;;;;;;6152527;23;20037;-50
2021/10/17 05:35:41;;;;;;;18.50;10.07;;;9.20;99.90;;;;;;6178257;23;20147;-49
2021/10/17 05:38:07;;;;;;;14.35;9.90;;;9.20;99.90;;;;;;6151915;23;20052;-49
2021/10/17 05:40:35;;;;;;;19.38;10.73;;;9.20;99.90;;;;;;6151566;23;20021;-48
2021/10/17 05:43:01;;;;;;;15.02;9.27;;;9.20;99.90;;;;;;6150307;23;20040;-50
2021/10/17 05:45:30;;;;;;;15.90;9.73;;;9.20;99.90;;;;;;6151697;23;20029;-48
2021/10/17 05:47:56;;;;;;;16.42;9.88;;;9.20;99.90;;;;;;6177000;23;20027;-48
2021/10/17 05:50:22;;;;;;;18.45;10.70;;;9.10;99.90;;;;;;6150775;23;20409;-48
2021/10/17 05:52:48;;;;;;;14.05;9.38;;;9.20;99.90;;;;;;6178212;23;20029;-47
2021/10/17 05:55:14;;;;;;;14.80;10.48;;;9.20;99.90;;;;;;6150609;23;20025;-48
2021/10/17 05:57:40;;;;;;;16.70;10.10;;;9.20;99.90;;;;;;6150921;23;20346;-48
2021/10/17 06:00:07;;;;;;;21.17;10.98;;;9.10;99.90;;;;;;6150752;23;20029;-49
2021/10/17 06:02:41;;;;;;;17.08;10.38;;;9.20;99.90;;;;;;6177243;23;20020;-46
2021/10/17 06:05:09;;;;;;;16.88;9.90;;;9.10;99.90;;;;;;6150551;23;20099;-46
2021/10/17 06:07:36;;;;;;;16.33;10.43;;;9.20;99.90;;;;;;6150710;23;20048;-48
2021/10/17 06:10:07;;;;;;;15.35;10.05;;;9.10;99.90;;;;;;6151371;23;20033;-49
2021/10/17 06:12:38;;;;;;;18.73;10.40;;;9.20;99.90;;;;;;6149979;23;20044;-49
2021/10/17 06:15:08;;;;;;;19.13;10.70;;;9.20;99.90;;;;;;6178233;23;20029;-49
2021/10/17 06:17:37;;;;;;;16.05;10.38;;;9.20;99.90;;;;;;6151221;23;20032;-52
2021/10/17 06:20:04;;;;;;;18.75;10.68;;;9.30;99.90;;;;;;6150803;23;20025;-52
2021/10/17 06:22:34;;;;;;;16.07;9.97;;;9.50;99.90;;;;;;6153039;23;20024;-48
2021/10/17 06:25:04;;;;;;;19.33;11.13;;;9.30;99.90;;;;;;6151485;23;20276;-50
2021/10/17 06:27:30;;;;;;;20.35;10.55;;;9.40;99.90;;;;;;6151535;23;20029;-54
2021/10/17 06:29:59;;;;;;;30.45;21.70;;;9.40;99.90;;;;;;6151468;23;20021;-52
2021/10/17 06:32:25;;;;;;;43.80;31.33;;;9.40;99.90;;;;;;6151132;23;20025;-49
2021/10/17 06:34:51;;;;;;;20.48;13.77;;;9.40;99.90;;;;;;6152757;23;20107;-51
2021/10/17 06:37:17;;;;;;;15.85;11.25;;;9.40;99.90;;;;;;6152373;23;20021;-50
2021/10/17 06:39:44;;;;;;;15.48;11.55;;;9.40;99.90;;;;;;6151855;23;20112;-50
2021/10/17 06:42:15;;;;;;;14.90;10.60;;;9.40;99.90;;;;;;6151612;23;20355;-50
2021/10/17 06:44:57;;;;;;;15.38;11.48;;;9.40;99.90;;;;;;6153207;23;20287;-48
2021/10/17 06:47:24;;;;;;;19.55;11.02;;;9.30;99.90;;;;;;6151879;23;20391;-48
2021/10/17 06:49:50;;;;;;;22.73;15.98;;;9.40;99.90;;;;;;6179164;23;20021;-53
2021/10/17 06:52:16;;;;;;;19.45;13.15;;;9.50;99.90;;;;;;6151569;23;20025;-52
2021/10/17 06:54:42;;;;;;;137.25;111.65;;;9.50;99.90;;;;;;6178057;23;20040;-52
2021/10/17 06:57:09;;;;;;;71.18;57.22;;;9.60;99.90;;;;;;6152192;23;20079;-52
2021/10/17 06:59:35;;;;;;;17.70;10.45;;;9.70;99.90;;;;;;6152092;23;20028;-49
2021/10/17 07:02:01;;;;;;;29.85;21.35;;;9.80;99.90;;;;;;6151166;23;20332;-49
2021/10/17 07:04:27;;;;;;;17.83;11.82;;;9.80;99.90;;;;;;6153313;23;20060;-52
2021/10/17 07:06:54;;;;;;;20.35;10.95;;;9.90;99.90;;;;;;6153266;23;20031;-51
2021/10/17 07:09:20;;;;;;;21.63;15.02;;;10.10;99.90;;;;;;6153707;23;20405;-49
2021/10/17 07:11:52;;;;;;;26.25;17.20;;;10.20;99.90;;;;;;6155188;23;20032;-49
2021/10/17 07:14:26;;;;;;;19.45;10.57;;;10.20;99.90;;;;;;6154586;23;20108;-46
2021/10/17 07:17:01;;;;;;;17.42;10.43;;;10.30;99.90;;;;;;6155015;23;20025;-46
2021/10/17 07:19:29;;;;;;;17.52;11.50;;;10.30;99.90;;;;;;6154728;23;20358;-49
2021/10/17 07:21:55;;;;;;;16.00;9.57;;;10.30;99.90;;;;;;6179207;23;20025;-49
2021/10/17 07:24:24;;;;;;;16.25;9.82;;;10.30;99.90;;;;;;6152675;23;20021;-52
2021/10/17 07:26:51;;;;;;;14.10;10.10;;;10.20;99.90;;;;;;6153702;23;20025;-54
2021/10/17 07:29:17;;;;;;;20.27;9.63;;;10.10;99.90;;;;;;6153998;23;20429;-51
2021/10/17 07:31:43;;;;;;;18.27;10.18;;;10.00;99.90;;;;;;6153436;23;20033;-52
2021/10/17 07:34:10;;;;;;;20.08;10.43;;;10.00;99.90;;;;;;6153939;23;20025;-47
2021/10/17 07:36:36;;;;;;;19.00;10.93;;;9.80;99.90;;;;;;6152532;23;20094;-52
2021/10/17 07:39:13;;;;;;;16.15;9.63;;;9.80;99.90;;;;;;6154032;23;20229;-51
2021/10/17 07:41:48;;;;;;;15.75;10.77;;;9.80;99.90;;;;;;6154498;23;20017;-48
2021/10/17 07:44:18;;;;;;;16.98;10.30;;;9.90;99.90;;;;;;6155331;23;20095;-46
2021/10/17 07:47:01;;;;;;;18.65;10.52;;;9.90;99.90;;;;;;6155691;23;20029;-49
2021/10/17 07:49:32;;;;;;;15.23;10.30;;;9.90;99.90;;;;;;6153699;23;20025;-48
2021/10/17 07:51:58;;;;;;;19.38;10.75;;;10.00;99.90;;;;;;6153741;23;20060;-50
2021/10/17 07:54:25;;;;;;;16.27;10.30;;;10.10;99.90;;;;;;6154866;23;20419;-50
2021/10/17 07:56:51;;;;;;;16.23;10.93;;;10.10;99.90;;;;;;6154790;23;20025;-52
2021/10/17 07:59:19;;;;;;;19.77;11.43;;;10.10;99.90;;;;;;6154956;23;20025;-51
2021/10/17 08:01:49;;;;;;;15.55;10.55;;;10.20;99.90;;;;;;6155195;23;20028;-50
2021/10/17 08:04:32;;;;;;;19.25;9.80;;;10.20;99.90;;;;;;6155387;23;20028;-52
2021/10/17 08:07:06;;;;;;;17.98;9.88;;;10.20;99.90;;;;;;6154483;23;20036;-53
2021/10/17 08:09:35;;;;;;;16.45;11.57;;;10.20;99.90;;;;;;6154667;23;20071;-52
2021/10/17 08:12:06;;;;;;;14.05;9.95;;;10.30;99.90;;;;;;6155167;23;20021;-57
2021/10/17 08:14:34;;;;;;;15.90;9.90;;;10.30;99.90;;;;;;6155343;23;20383;-50
2021/10/17 08:17:04;;;;;;;17.58;10.43;;;10.30;99.90;;;;;;6155250;23;20633;-52
2021/10/17 08:19:53;;;;;;;16.05;10.30;;;10.30;99.90;;;;;;6156739;23;20032;-53
2021/10/17 08:22:20;;;;;;;17.08;10.90;;;10.30;99.90;;;;;;6127976;23;20364;-52
2021/10/17 08:24:46;;;;;;;20.80;11.27;;;10.40;99.90;;;;;;6153668;23;20377;-48
2021/10/17 08:27:13;;;;;;;17.20;10.80;;;10.50;99.90;;;;;;6155076;23;20083;-49
2021/10/17 08:29:39;;;;;;;19.77;10.73;;;10.50;99.90;;;;;;6128750;23;20021;-52
2021/10/17 08:32:09;;;;;;;23.27;10.77;;;10.60;99.90;;;;;;6154231;23;20024;-51
2021/10/17 08:34:40;;;;;;;17.35;10.80;;;10.60;99.90;;;;;;6153766;23;20025;-50
2021/10/17 08:37:11;;;;;;;16.85;9.55;;;10.60;99.90;;;;;;6153977;23;20115;-49
2021/10/17 08:40:04;;;;;;;14.57;10.05;;;10.60;99.90;;;;;;6159065;23;20044;-52
2021/10/17 08:43:03;;;;;;;20.10;9.07;;;10.70;99.90;;;;;;6159137;23;20025;-50
2021/10/17 08:45:37;;;;;;;18.92;10.52;;;10.80;99.90;;;;;;6154113;23;20024;-51
2021/10/17 08:48:06;;;;;;;21.92;11.52;;;10.80;99.90;;;;;;6153948;23;20021;-47
2021/10/17 08:50:36;;;;;;;17.27;11.05;;;10.90;99.90;;;;;;6130071;23;20028;-50
2021/10/17 08:53:03;;;;;;;19.15;10.02;;;11.00;99.90;;;;;;6128205;23;20091;-50
2021/10/17 08:55:33;;;;;;;17.10;11.07;;;11.00;99.90;;;;;;6153208;23;20107;-49
2021/10/17 08:58:14;;;;;;;18.23;10.55;;;11.00;99.90;;;;;;6153448;23;20033;-51
2021/10/17 09:00:41;;;;;;;15.35;10.85;;;11.00;99.90;;;;;;6154124;23;20076;-51
2021/10/17 09:03:33;;;;;;;14.75;10.52;;;11.00;99.90;;;;;;6154581;23;20040;-49
2021/10/17 09:06:22;;;;;;;21.48;11.02;;;11.00;99.90;;;;;;6154075;23;20029;-52
2021/10/17 09:09:20;;;;;;;20.13;11.95;;;11.00;99.90;;;;;;6154126;23;20466;-51
2021/10/17 09:11:53;;;;;;;20.13;11.38;;;11.00;99.90;;;;;;6131789;23;20020;-51
2021/10/17 09:14:24;;;;;;;17.45;10.10;;;11.10;99.90;;;;;;6154196;23;20462;-50
2021/10/17 09:16:55;;;;;;;17.58;10.18;;;11.10;99.90;;;;;;6180209;23;20040;-51
2021/10/17 09:19:29;;;;;;;15.05;9.88;;;11.10;99.90;;;;;;6180059;23;20025;-51
2021/10/17 09:22:05;;;;;;;16.85;10.75;;;11.20;99.90;;;;;;6154123;23;20025;-53
2021/10/17 09:24:33;;;;;;;21.50;10.70;;;11.20;99.90;;;;;;6153468;23;20035;-49
2021/10/17 09:27:12;;;;;;;17.92;11.18;;;11.30;99.90;;;;;;6179796;23;20485;-51
2021/10/17 09:29:40;;;;;;;17.45;10.93;;;11.30;99.90;;;;;;6178658;23;20076;-50
2021/10/17 09:32:11;;;;;;;15.45;10.10;;;11.30;99.90;;;;;;6152343;23;20029;-49
2021/10/17 09:34:38;;;;;;;18.17;11.27;;;11.40;99.90;;;;;;6179718;23;20398;-48
2021/10/17 09:37:11;;;;;;;16.00;10.13;;;11.50;99.90;;;;;;6178953;23;20454;-50
2021/10/17 09:40:08;;;;;;;18.25;11.02;;;11.50;99.90;;;;;;6029870;23;20243;-47
2021/10/17 09:43:08;;;;;;;20.80;12.13;;;11.60;99.90;;;;;;6030237;23;20031;-50
2021/10/17 09:45:42;;;;;;;17.70;10.75;;;11.50;99.90;;;;;;6030429;23;20050;-50
2021/10/17 09:48:26;;;;;;;15.80;10.65;;;11.60;99.90;;;;;;6029787;23;20496;-48
2021/10/17 09:51:06;;;;;;;14.77;9.93;;;11.70;99.90;;;;;;6029615;23;20042;-50
2021/10/17 09:53:41;;;;;;;18.40;11.35;;;11.60;99.90;;;;;;6006311;23;20069;-49
2021/10/17 09:56:08;;;;;;;19.83;10.55;;;11.60;99.90;;;;;;6030037;23;20511;-52
2021/10/17 09:58:34;;;;;;;15.00;10.00;;;11.60;99.90;;;;;;6030772;23;20086;-46
2021/10/17 10:01:01;;;;;;;17.77;10.52;;;11.60;99.90;;;;;;6030051;23;20027;-49
2021/10/17 10:03:27;;;;;;;19.33;9.70;;;11.60;99.90;;;;;;6029136;23;20027;-50
2021/10/17 10:05:56;;;;;;;17.50;9.98;;;11.60;99.90;;;;;;6030218;23;20087;-49
2021/10/17 10:08:27;;;;;;;17.67;9.40;;;11.60;99.90;;;;;;6030156;23;20068;-49
2021/10/17 10:10:54;;;;;;;12.63;9.48;;;11.60;99.90;;;;;;6029826;23;20068;-50
2021/10/17 10:13:23;;;;;;;19.33;10.45;;;11.60;99.90;;;;;;6006759;23;20038;-48
2021/10/17 10:15:51;;;;;;;18.75;10.23;;;11.60;99.90;;;;;;6038150;23;20070;-49
2021/10/17 10:18:22;;;;;;;18.02;9.88;;;11.60;99.90;;;;;;6179340;23;20040;-49
2021/10/17 10:20:48;;;;;;;14.65;9.95;;;11.60;99.90;;;;;;6178545;23;20064;-49
2021/10/17 10:23:15;;;;;;;16.23;11.07;;;11.60;99.90;;;;;;6179859;23;20032;-50
2021/10/17 10:25:42;;;;;;;14.52;9.98;;;11.60;99.90;;;;;;6178326;23;20048;-50
2021/10/17 10:28:13;;;;;;;19.85;10.35;;;11.70;99.90;;;;;;6178868;23;20025;-50
2021/10/17 10:30:41;;;;;;;16.20;10.57;;;11.70;99.90;;;;;;6177994;23;20536;-51
2021/10/17 10:33:13;;;;;;;14.50;10.80;;;11.80;99.90;;;;;;6178914;23;20099;-50
2021/10/17 10:36:09;;;;;;;14.63;9.77;;;11.80;99.90;;;;;;6178653;23;20031;-49
2021/10/17 10:38:53;;;;;;;14.90;9.65;;;11.90;99.90;;;;;;6179355;23;20083;-51
2021/10/17 10:41:28;;;;;;;19.58;11.10;;;12.00;99.90;;;;;;6178146;23;20021;-48
2021/10/17 10:44:11;;;;;;;13.60;9.15;;;12.00;99.90;;;;;;6178748;23;20119;-49
2021/10/17 10:46:37;;;;;;;;;;;12.00;99.90;;;;;;6179699;23;20039;-51
2021/10/17 10:49:03;;;;;;;17.23;9.13;;;12.00;99.90;;;;;;6178633;23;19994;-52
2021/10/17 10:51:43;;;;;;;22.13;8.48;;;12.00;99.90;;;;;;6151823;23;20080;-50
2021/10/17 10:54:24;;;;;;;14.85;9.45;;;12.00;99.90;;;;;;6179291;23;20138;-51
2021/10/17 10:56:56;;;;;;;14.68;9.50;;;12.00;99.90;;;;;;6152799;23;20017;-51
2021/10/17 10:59:25;;;;;;;17.95;9.45;;;12.00;99.90;;;;;;6178087;23;20029;-48
2021/10/17 11:01:57;;;;;;;17.35;8.93;;;12.00;99.90;;;;;;6178333;23;20159;-48
2021/10/17 11:04:44;;;;;;;14.27;8.23;;;12.10;99.90;;;;;;6178550;23;20032;-48
2021/10/17 11:07:20;;;;;;;15.73;9.32;;;12.10;99.90;;;;;;6178914;23;20032;-48
2021/10/17 11:09:49;;;;;;;16.75;9.25;;;12.20;99.90;;;;;;6178221;23;20421;-52
2021/10/17 11:12:39;;;;;;;18.13;8.90;;;12.30;99.90;;;;;;6178418;23;20043;-52
2021/10/17 11:15:09;;;;;;;14.27;8.25;;;12.30;99.90;;;;;;6179293;23;20087;-49
2021/10/17 11:17:35;;;;;;;16.65;8.98;;;12.40;99.90;;;;;;6178026;23;20099;-51
2021/10/17 11:20:04;;;;;;;14.15;7.93;;;12.40;99.90;;;;;;6150861;23;20100;-51
2021/10/17 11:22:36;;;;;;;13.50;7.65;;;12.40;99.90;;;;;;6177702;23;20033;-50
2021/10/17 11:25:03;;;;;;;16.52;8.43;;;12.50;99.90;;;;;;6177055;23;20021;-48
2021/10/17 11:27:29;;;;;;;14.68;8.70;;;12.60;99.90;;;;;;6178748;23;20120;-50
2021/10/17 11:29:56;;;;;;;21.30;8.38;;;12.70;99.90;;;;;;6178376;23;20021;-48
2021/10/17 11:32:22;;;;;;;15.70;7.93;;;12.80;99.90;;;;;;6178674;23;20043;-52
2021/10/17 11:35:03;;;;;;;14.30;7.88;;;12.90;99.90;;;;;;6179725;23;20037;-51
2021/10/17 11:37:31;;;;;;;14.02;7.70;;;12.90;99.90;;;;;;6179014;23;20064;-48
2021/10/17 11:40:03;;;;;;;12.75;8.40;;;13.00;99.90;;;;;;6179090;23;20354;-52
2021/10/17 11:42:41;;;;;;;15.73;8.63;;;13.10;99.90;;;;;;6179798;23;20598;-49
2021/10/17 11:45:38;;;;;;;13.50;7.30;;;13.10;99.90;;;;;;6179440;23;20021;-51
2021/10/17 11:48:06;;;;;;;12.93;8.57;;;13.00;99.90;;;;;;6163855;23;20029;-47
2021/10/17 11:50:38;;;;;;;13.50;8.77;;;13.10;99.90;;;;;;6179498;23;20478;-51
2021/10/17 11:53:13;;;;;;;14.50;8.05;;;13.10;99.90;;;;;;6179532;23;20207;-51
2021/10/17 11:55:47;;;;;;;12.45;7.43;;;13.20;99.90;;;;;;6181161;23;20459;-50
2021/10/17 11:58:28;;;;;;;14.30;7.78;;;13.30;99.90;;;;;;6180836;23;20120;-48
2021/10/17 12:00:57;;;;;;;12.95;7.72;;;13.30;99.90;;;;;;6153683;23;20024;-51
2021/10/17 12:03:25;;;;;;;14.27;7.95;;;13.30;99.90;;;;;;6180522;23;20039;-49
2021/10/17 12:05:53;;;;;;;10.13;6.63;;;13.40;99.90;;;;;;6179708;23;20517;-50
2021/10/17 12:08:25;;;;;;;15.82;7.60;;;13.50;99.90;;;;;;6154468;23;20462;-49
2021/10/17 12:11:07;;;;;;;13.18;7.53;;;13.50;99.90;;;;;;6154205;23;20407;-50
2021/10/17 12:13:53;;;;;;;16.00;8.15;;;13.50;99.90;;;;;;6181010;23;20025;-49
2021/10/17 12:16:25;;;;;;;15.48;7.50;;;13.60;99.90;;;;;;6180160;23;20320;-51
2021/10/17 12:19:00;;;;;;;11.90;7.20;;;13.60;99.90;;;;;;6180478;23;20043;-53
2021/10/17 12:21:38;;;;;;;10.80;6.45;;;13.60;99.90;;;;;;6179943;23;20028;-48
2021/10/17 12:24:05;;;;;;;11.18;6.78;;;13.60;99.90;;;;;;6153999;23;20021;-49
2021/10/17 12:26:37;;;;;;;13.77;7.15;;;13.60;99.90;;;;;;6153537;23;20073;-47
2021/10/17 12:29:07;;;;;;;11.82;6.88;;;13.60;99.90;;;;;;6179908;23;20498;-48
2021/10/17 12:31:35;;;;;;;12.20;6.88;;;13.60;99.90;;;;;;6180647;23;20477;-48
2021/10/17 12:34:06;;;;;;;12.02;6.90;;;13.60;99.90;;;;;;6181111;23;20029;-48
2021/10/17 12:36:32;;;;;;;10.73;7.07;;;13.60;99.90;;;;;;6180634;23;20112;-51
2021/10/17 12:39:03;;;;;;;11.20;7.28;;;13.60;99.90;;;;;;6152910;23;20458;-48
2021/10/17 12:41:30;;;;;;;15.35;8.10;;;13.60;99.90;;;;;;6180132;23;20402;-52
2021/10/17 12:44:22;;;;;;;15.05;8.30;;;13.70;99.90;;;;;;6154453;23;20025;-51
2021/10/17 12:47:04;;;;;;;9.05;6.95;;;13.80;99.90;;;;;;6178091;23;20064;-48
2021/10/17 12:49:42;;;;;;;12.23;7.60;;;13.90;99.90;;;;;;6181030;23;20029;-48
2021/10/17 12:52:11;;;;;;;12.90;7.15;;;13.90;99.90;;;;;;6154487;23;20044;-48